Portland, Texas
Current Conditions -  °F | °C
As of 11:35 AM on Saturday 25 Oct 2014 (Local Time) from KTFP Reporting Station
Clear Clear  
Wind Chill: 80°   Ceiling: Unl
Heat Index: 82°   Visibility: 10mi
Dew Point: 64°   Wind: 6mph
Humidity: 57%   Direction: 50°NE
Pressure: 30.17"   Gusts: NA
Location:  27.88°N, 97.32°W
Report Text: KTFP 251635Z AUTO 05005KT 10SM CLR 27/18 A3017 RMK AO2 T02680175
Loading
Personal Weather Stations






























Interactive Weather Map New forecast layout! Learn more

10-Day Weather Forecast

Advertisements
Track Severe Weather on mobile